Sea Mule — WDB7537 — position and weather

sailwx.info

Track history (hours):
 
Tides and Currents Weather Stations Pressure Air Temp Water Temp Dewpoint Dewpoint Depression Visibility Wind Speed Wind Dir Waves Ship Positions

Sea Mule

Owner: GARBER BROTHERS INC, MORGAN CITY, LA. More information available from US FCC via Universal Licensing System and Coast Guard Vessel Documentation Center.

Last reported at 2018-Jun-20 03:54 UTC. Time now 2018-Jun-21 19:50 UTC.
Position N 29°33' W 090°26'.

Length 15 m.

Type: Tug. MMSI: 366943760.

Date/timePositionNaut miles runAvg speedWind from/ knotsBaromVisibWave heightAir tempDewpointWater temp
2018-Jun-20 03:54N 29°33' W 090°26'2 4.4
2018-Jun-20 03:30N 29°34' W 090°28'2 4.5
2018-Jun-20 03:00N 29°34' W 090°31'2 4.1
2018-Jun-20 02:30N 29°34' W 090°33'1 2.8
2018-Jun-20 02:00N 29°34' W 090°35'0 0.1
2018-Jun-20 01:30N 29°34' W 090°35'0 0.2
2018-Jun-20 01:00N 29°35' W 090°35'2 3.4
2018-Jun-20 00:30N 29°35' W 090°37'3 5.8
2018-Jun-20 00:00N 29°36' W 090°40'2 4.7
2018-Jun-19 23:30N 29°37' W 090°42'2 4.5
2018-Jun-19 23:00N 29°34' W 090°43'2 3.9
2018-Jun-19 22:30N 29°34' W 090°45'3 5.0
2018-Jun-19 22:00N 29°32' W 090°47'62 3.7
2018-Jun-19 05:14N 29°51' W 091°56'1 5.0
2018-Jun-19 05:00N 29°50' W 091°57'3 5.2
2018-Jun-19 04:30N 29°50' W 091°60'3 5.3
2018-Jun-19 04:00N 29°49' W 092°03'2 4.6
2018-Jun-19 03:30N 29°48' W 092°05'2 4.7
2018-Jun-19 03:00N 29°47' W 092°08'1 1.5
2018-Jun-19 02:30N 29°48' W 092°08'1 2.7
2018-Jun-19 02:00N 29°49' W 092°08'0 0.2
2018-Jun-19 01:30N 29°49' W 092°08'0 0.2
2018-Jun-19 01:00N 29°49' W 092°08'0 0.1
2018-Jun-19 00:30N 29°49' W 092°08'0 0.1
2018-Jun-19 00:00N 29°49' W 092°08'0 0.0
2018-Jun-18 23:30N 29°49' W 092°08'0 0.0
2018-Jun-18 23:00N 29°49' W 092°08'0 0.0
2018-Jun-18 22:30N 29°49' W 092°08'0 0.0
2018-Jun-18 22:00N 29°49' W 092°08'0 0.0
2018-Jun-18 21:30N 29°49' W 092°08'0 0.0
2018-Jun-18 21:00N 29°49' W 092°08'0 0.0
2018-Jun-18 20:30N 29°49' W 092°08'0 0.0
2018-Jun-18 19:59N 29°49' W 092°08'0 0.0
2018-Jun-18 19:30N 29°49' W 092°08'0 0.4
2018-Jun-18 18:59N 29°49' W 092°08'0 0.1
2018-Jun-18 18:30N 29°49' W 092°08'0 0.3
2018-Jun-18 17:59N 29°49' W 092°08'0 0.0
2018-Jun-18 17:30N 29°49' W 092°08'0 0.0
2018-Jun-18 17:00N 29°49' W 092°08'0 0.0
2018-Jun-18 16:30N 29°49' W 092°08'0 0.0
2018-Jun-18 16:00N 29°49' W 092°08'0 0.0
2018-Jun-18 15:30N 29°49' W 092°08'0 0.0
2018-Jun-18 15:00N 29°49' W 092°08'0 0.0
2018-Jun-18 14:30N 29°49' W 092°08'0 0.0
2018-Jun-18 13:59N 29°49' W 092°08'0 0.0
2018-Jun-18 13:30N 29°49' W 092°08'0 0.3
2018-Jun-18 13:00N 29°49' W 092°08'0 0.0
2018-Jun-18 12:30N 29°49' W 092°08'0 0.0
2018-Jun-18 11:57N 29°49' W 092°08'0 0.0
2018-Jun-18 11:26N 29°49' W 092°08'0 0.0
2018-Jun-18 10:58N 29°49' W 092°08'0 0.0
2018-Jun-18 10:30N 29°49' W 092°08'0 0.0
2018-Jun-18 10:00N 29°49' W 092°08'0 0.0
2018-Jun-18 09:29N 29°49' W 092°08'0 0.0
2018-Jun-18 09:00N 29°49' W 092°08'0 0.0
2018-Jun-18 08:30N 29°49' W 092°08'0 0.0
2018-Jun-18 08:00N 29°49' W 092°08'0 0.0
2018-Jun-18 07:30N 29°49' W 092°08'0 0.0
2018-Jun-18 07:00N 29°49' W 092°08'0 0.0
2018-Jun-18 06:30N 29°49' W 092°08'0 0.0
2018-Jun-18 06:00N 29°49' W 092°08'1 2.1
2018-Jun-18 05:30N 29°48' W 092°08'1 2.2
2018-Jun-18 05:00N 29°47' W 092°08'3 5.3
2018-Jun-18 04:30N 29°48' W 092°05'2 3.3
2018-Jun-18 04:00N 29°49' W 092°03'0 0.0
2018-Jun-18 03:30N 29°49' W 092°03'0 0.5
2018-Jun-18 03:00N 29°49' W 092°04'61 4.5
2018-Jun-17 13:33N 29°34' W 090°56'1 7.5
2018-Jun-17 13:28N 29°34' W 090°55'4 7.0
2018-Jun-17 12:56N 29°32' W 090°51'3 7.2
2018-Jun-17 12:30N 29°32' W 090°48'3 5.8
2018-Jun-17 12:00N 29°34' W 090°45'2 3.6
2018-Jun-17 11:30N 29°34' W 090°43'2 3.2
2018-Jun-17 11:00N 29°33' W 090°41'0 0.3
2018-Jun-17 10:30N 29°33' W 090°41'0 0.0
2018-Jun-17 10:00N 29°33' W 090°41'0 0.0
2018-Jun-17 09:30N 29°33' W 090°41'0 0.0
2018-Jun-17 09:00N 29°33' W 090°41'0 0.0
2018-Jun-17 08:30N 29°33' W 090°41'0 0.0
2018-Jun-17 08:00N 29°33' W 090°41'0 0.0
2018-Jun-17 07:30N 29°33' W 090°41'0 0.0
2018-Jun-17 06:59N 29°33' W 090°41'0 0.0
2018-Jun-17 06:30N 29°33' W 090°41'0 0.0
2018-Jun-17 06:00N 29°33' W 090°41'0 0.0
2018-Jun-17 05:30N 29°33' W 090°41'0 0.0
2018-Jun-17 05:00N 29°33' W 090°41'0 0.0
2018-Jun-17 04:29N 29°33' W 090°41'0 0.0
2018-Jun-17 04:00N 29°33' W 090°41'0 0.0
2018-Jun-17 03:30N 29°33' W 090°41'0 0.0
2018-Jun-17 03:00N 29°33' W 090°41'0 0.0
2018-Jun-17 02:30N 29°33' W 090°41'0 0.0
2018-Jun-17 02:00N 29°33' W 090°41'0 0.1
2018-Jun-17 01:30N 29°33' W 090°41'0 0.3
2018-Jun-17 01:00N 29°33' W 090°42'0 0.1
2018-Jun-17 00:30N 29°33' W 090°42'0 0.0
2018-Jun-16 23:59N 29°33' W 090°42'0 0.6
2018-Jun-16 23:31N 29°33' W 090°41'0 0.0
2018-Jun-16 23:00N 29°33' W 090°41'0 0.0
2018-Jun-16 22:31N 29°33' W 090°41'0 0.0
2018-Jun-16 22:00N 29°33' W 090°41'0 0.0
2018-Jun-16 21:30N 29°33' W 090°41'0 0.0
2018-Jun-16 20:59N 29°33' W 090°41'0 0.0
2018-Jun-16 20:29N 29°33' W 090°41'0 0.0
2018-Jun-16 20:01N 29°33' W 090°41'0 0.0
2018-Jun-16 19:31N 29°33' W 090°41'0 0.0
2018-Jun-16 19:01N 29°33' W 090°41'0 0.0
2018-Jun-16 18:31N 29°33' W 090°41'0 0.0
2018-Jun-16 18:01N 29°33' W 090°41'0 0.0
2018-Jun-16 17:30N 29°33' W 090°41'0 0.0
2018-Jun-16 17:01N 29°33' W 090°41'0 0.0
2018-Jun-16 16:31N 29°33' W 090°41'0 0.0
2018-Jun-16 16:00N 29°33' W 090°41'0 0.0
2018-Jun-16 15:30N 29°33' W 090°41'0 0.0
2018-Jun-16 15:00N 29°33' W 090°41'0 0.0
2018-Jun-16 14:31N 29°33' W 090°41'0 0.0
2018-Jun-16 14:01N 29°33' W 090°41'0 0.0
2018-Jun-16 13:31N 29°33' W 090°41'0 0.0
2018-Jun-16 13:01N 29°33' W 090°41'0 0.0
2018-Jun-16 12:30N 29°33' W 090°41'0 0.0
2018-Jun-16 12:00N 29°33' W 090°41'0 0.0
2018-Jun-16 11:31N 29°33' W 090°41'0 0.0
2018-Jun-16 11:01N 29°33' W 090°41'0 0.0
2018-Jun-16 10:31N 29°33' W 090°41'0 0.0
2018-Jun-16 10:01N 29°33' W 090°41'0 0.3
2018-Jun-16 09:31N 29°33' W 090°41'3 5.4
2018-Jun-16 09:00N 29°30' W 090°43'4 7.1
2018-Jun-16 08:30N 29°27' W 090°43'2 0.3
2018-Jun-15 23:42N 29°24' W 090°44'2 7.7
2018-Jun-15 23:30N 29°26' W 090°43'4 8.7
2018-Jun-15 23:00N 29°30' W 090°43'3 5.6
2018-Jun-15 22:30N 29°33' W 090°41'0 0.0
2018-Jun-15 22:00N 29°33' W 090°41'0 0.0
2018-Jun-15 21:30N 29°33' W 090°41'0 0.0
2018-Jun-15 21:00N 29°33' W 090°41'0 0.0
2018-Jun-15 20:30N 29°33' W 090°41'0 0.0
2018-Jun-15 19:56N 29°33' W 090°41'0 0.0
2018-Jun-15 19:31N 29°33' W 090°41'0 0.0
2018-Jun-15 19:01N 29°33' W 090°41'0 0.0
2018-Jun-15 18:31N 29°33' W 090°41'0 0.0
2018-Jun-15 18:00N 29°33' W 090°41'0 0.0
2018-Jun-15 17:30N 29°33' W 090°41'0 0.0
2018-Jun-15 17:00N 29°33' W 090°41'0 0.0
2018-Jun-15 16:30N 29°33' W 090°41'0 0.0
2018-Jun-15 16:01N 29°33' W 090°41'0 0.0
2018-Jun-15 15:31N 29°33' W 090°41'0 0.0
2018-Jun-15 15:00N 29°33' W 090°41'0 0.0
2018-Jun-15 14:30N 29°33' W 090°41'0 0.0
2018-Jun-15 14:00N 29°33' W 090°41'1 2.4
2018-Jun-15 13:31N 29°34' W 090°42'0 0.1
2018-Jun-15 13:00N 29°34' W 090°42'0 0.1
2018-Jun-15 12:30N 29°34' W 090°42'1 2.4
2018-Jun-15 12:01N 29°33' W 090°41'0 0.0
2018-Jun-15 11:30N 29°33' W 090°41'0 0.0
2018-Jun-15 11:00N 29°33' W 090°41'0 0.0
2018-Jun-15 10:31N 29°33' W 090°41'0 0.0
2018-Jun-15 10:00N 29°33' W 090°41'0 0.0
2018-Jun-15 09:31N 29°33' W 090°41'0 0.0
2018-Jun-15 09:00N 29°33' W 090°41'0 0.0
2018-Jun-15 08:31N 29°33' W 090°41'0 0.0
2018-Jun-15 08:00N 29°33' W 090°41'1 1.7
2018-Jun-15 07:30N 29°33' W 090°42'2 4.7
2018-Jun-15 07:00N 29°34' W 090°45'4 7.7
2018-Jun-15 06:28N 29°32' W 090°49'6 0.8
2018-Jun-14 22:35N 29°34' W 090°56'1 8.6
2018-Jun-14 22:26N 29°33' W 090°55'4 0.6
2018-Jun-14 16:12N 29°32' W 090°50'1 3.1
2018-Jun-14 16:00N 29°32' W 090°50'2 3.1
2018-Jun-14 15:30N 29°32' W 090°48'1 3.0
2018-Jun-14 15:00N 29°32' W 090°46'1 2.4
2018-Jun-14 14:30N 29°33' W 090°45'1 2.2
2018-Jun-14 14:00N 29°34' W 090°44'1 2.2
2018-Jun-14 13:30N 29°34' W 090°43'1 1.6
2018-Jun-14 13:01N 29°35' W 090°43'1 1.6
2018-Jun-14 12:31N 29°36' W 090°43'1 1.3
2018-Jun-14 12:00N 29°36' W 090°43'0 0.1
2018-Jun-14 11:30N 29°36' W 090°43'0 0.1
2018-Jun-14 11:01N 29°36' W 090°43'1 3.0
2018-Jun-14 10:30N 29°35' W 090°43'3 5.0
2018-Jun-14 10:00N 29°33' W 090°42'0 0.3
2018-Jun-14 09:31N 29°33' W 090°41'0 0.0
2018-Jun-14 09:01N 29°33' W 090°41'0 0.0
2018-Jun-14 08:30N 29°33' W 090°41'0 0.0
2018-Jun-14 08:01N 29°33' W 090°41'0 0.0
2018-Jun-14 07:29N 29°33' W 090°41'0 0.0
2018-Jun-14 07:01N 29°33' W 090°41'0 0.0
2018-Jun-14 06:30N 29°33' W 090°41'0 0.0
2018-Jun-14 06:00N 29°33' W 090°41'0 0.0
2018-Jun-14 05:30N 29°33' W 090°41'0 0.0
2018-Jun-14 05:01N 29°33' W 090°41'0 0.0
2018-Jun-14 04:30N 29°33' W 090°41'0 0.0
2018-Jun-14 04:00N 29°33' W 090°41'0 0.0
2018-Jun-14 03:31N 29°33' W 090°41'0 0.0
2018-Jun-14 03:01N 29°33' W 090°41'0 0.0
2018-Jun-14 02:31N 29°33' W 090°41'0 0.0
2018-Jun-14 02:01N 29°33' W 090°41'0 0.0
2018-Jun-14 01:31N 29°33' W 090°41'0 0.0
2018-Jun-14 01:01N 29°33' W 090°41'0 0.0
2018-Jun-14 00:31N 29°33' W 090°41'0 0.1
2018-Jun-14 00:01N 29°33' W 090°41'0 0.5
2018-Jun-13 23:30N 29°33' W 090°42'2 3.7
2018-Jun-13 23:00N 29°34' W 090°43'2 3.5
2018-Jun-13 22:31N 29°36' W 090°43'2 3.0
2018-Jun-13 22:00N 29°36' W 090°41'3 5.1
2018-Jun-13 21:30N 29°35' W 090°38'2 5.0
2018-Jun-13 21:00N 29°35' W 090°35'3 5.8
2018-Jun-13 20:30N 29°34' W 090°32'3 0.2
2018-Jun-13 06:08N 29°33' W 090°28'1 6.5
2018-Jun-13 06:00N 29°34' W 090°29'3 6.4
2018-Jun-13 05:30N 29°34' W 090°33'3 5.5
2018-Jun-13 05:00N 29°35' W 090°36'0 0.2
2018-Jun-13 04:30N 29°35' W 090°36'3 5.8
2018-Jun-13 04:00N 29°36' W 090°39'3 6.3
2018-Jun-13 03:30N 29°37' W 090°42'3 6.2
2018-Jun-13 03:01N 29°33' W 090°43'1 1.9
2018-Jun-13 02:30N 29°33' W 090°43'0 0.2
2018-Jun-13 02:01N 29°33' W 090°42'0 0.2
2018-Jun-13 01:30N 29°33' W 090°43'1 1.5
2018-Jun-13 01:01N 29°33' W 090°42'1 1.1
2018-Jun-13 00:31N 29°33' W 090°42'2 3.2
2018-Jun-13 00:01N 29°31' W 090°42'2 4.6
2018-Jun-12 23:30N 29°29' W 090°43'6 1.6
2018-Jun-12 19:52N 29°23' W 090°44'3 7.5
2018-Jun-12 19:30N 29°26' W 090°43'4 7.5
2018-Jun-12 19:00N 29°29' W 090°43'3 6.6
2018-Jun-12 18:31N 29°33' W 090°42'0 0.0
2018-Jun-12 18:00N 29°33' W 090°42'0 0.3
2018-Jun-12 17:30N 29°33' W 090°42'3 5.2
2018-Jun-12 17:00N 29°30' W 090°43'7 1.6
2018-Jun-12 12:22N 29°23' W 090°44'2 6.7
2018-Jun-12 12:00N 29°25' W 090°43'4 8.0
2018-Jun-12 11:30N 29°29' W 090°43'4 7.7
2018-Jun-12 11:00N 29°33' W 090°42'1 1.2
2018-Jun-12 10:30N 29°33' W 090°41'0 0.0
2018-Jun-12 10:00N 29°33' W 090°41'0 0.0
2018-Jun-12 09:30N 29°33' W 090°41'0 0.0
2018-Jun-12 09:00N 29°33' W 090°41'0 0.0
2018-Jun-12 08:30N 29°33' W 090°41'0 0.0
2018-Jun-12 08:00N 29°33' W 090°41'0 0.0
2018-Jun-12 07:30N 29°33' W 090°41'0 0.0
2018-Jun-12 07:00N 29°33' W 090°41'0 0.0
2018-Jun-12 06:30N 29°33' W 090°41'0 0.0
2018-Jun-12 06:00N 29°33' W 090°41'0 0.0
2018-Jun-12 05:30N 29°33' W 090°41'0 0.0
2018-Jun-12 05:00N 29°33' W 090°41'0 0.0
2018-Jun-12 04:30N 29°33' W 090°41'0 0.0
2018-Jun-12 04:00N 29°33' W 090°41'0 0.0
2018-Jun-12 03:30N 29°33' W 090°41'0 0.0
2018-Jun-12 03:00N 29°33' W 090°41'0 0.0
2018-Jun-12 02:30N 29°33' W 090°41'0 0.0
2018-Jun-12 02:00N 29°33' W 090°41'0 0.0
2018-Jun-12 01:30N 29°33' W 090°41'0 0.0
2018-Jun-12 01:00N 29°33' W 090°41'0 0.0
2018-Jun-12 00:30N 29°33' W 090°41'0 0.0
2018-Jun-12 00:00N 29°33' W 090°41'0 0.0
2018-Jun-11 23:30N 29°33' W 090°41'0 0.0
2018-Jun-11 23:00N 29°33' W 090°41'0 0.0
2018-Jun-11 22:30N 29°33' W 090°41'0 0.0
2018-Jun-11 22:00N 29°33' W 090°41'0 0.0
2018-Jun-11 21:30N 29°33' W 090°41'2 4.0
2018-Jun-11 21:00N 29°34' W 090°43'3 6.0
2018-Jun-11 20:30N 29°32' W 090°46'  
Track history (hours):
 
Tides and Currents Weather Stations Pressure Air Temp Water Temp Dewpoint Dewpoint Depression Visibility Wind Speed Wind Dir Waves Ship Positions

Sea Mule

Owner: GARBER BROTHERS INC, MORGAN CITY, LA. More information available from US FCC via Universal Licensing System and Coast Guard Vessel Documentation Center.

Last reported at 2018-Jun-20 03:54 UTC. Time now 2018-Jun-21 19:50 UTC.
Position N 29°33' W 090°26'.

Length 15 m.

Type: Tug. MMSI: 366943760.

Date/timePositionNaut miles runAvg speedWind from/ knotsBaromVisibWave heightAir tempDewpointWater temp
2018-Jun-20 03:54N 29°33' W 090°26'2 4.4
2018-Jun-20 03:30N 29°34' W 090°28'2 4.5
2018-Jun-20 03:00N 29°34' W 090°31'2 4.1
2018-Jun-20 02:30N 29°34' W 090°33'1 2.8
2018-Jun-20 02:00N 29°34' W 090°35'0 0.1
2018-Jun-20 01:30N 29°34' W 090°35'0 0.2
2018-Jun-20 01:00N 29°35' W 090°35'2 3.4
2018-Jun-20 00:30N 29°35' W 090°37'3 5.8
2018-Jun-20 00:00N 29°36' W 090°40'2 4.7
2018-Jun-19 23:30N 29°37' W 090°42'2 4.5
2018-Jun-19 23:00N 29°34' W 090°43'2 3.9
2018-Jun-19 22:30N 29°34' W 090°45'3 5.0
2018-Jun-19 22:00N 29°32' W 090°47'62 3.7
2018-Jun-19 05:14N 29°51' W 091°56'1 5.0
2018-Jun-19 05:00N 29°50' W 091°57'3 5.2
2018-Jun-19 04:30N 29°50' W 091°60'3 5.3
2018-Jun-19 04:00N 29°49' W 092°03'2 4.6
2018-Jun-19 03:30N 29°48' W 092°05'2 4.7
2018-Jun-19 03:00N 29°47' W 092°08'1 1.5
2018-Jun-19 02:30N 29°48' W 092°08'1 2.7
2018-Jun-19 02:00N 29°49' W 092°08'0 0.2
2018-Jun-19 01:30N 29°49' W 092°08'0 0.2
2018-Jun-19 01:00N 29°49' W 092°08'0 0.1
2018-Jun-19 00:30N 29°49' W 092°08'0 0.1
2018-Jun-19 00:00N 29°49' W 092°08'0 0.0
2018-Jun-18 23:30N 29°49' W 092°08'0 0.0
2018-Jun-18 23:00N 29°49' W 092°08'0 0.0
2018-Jun-18 22:30N 29°49' W 092°08'0 0.0
2018-Jun-18 22:00N 29°49' W 092°08'0 0.0
2018-Jun-18 21:30N 29°49' W 092°08'0 0.0
2018-Jun-18 21:00N 29°49' W 092°08'0 0.0
2018-Jun-18 20:30N 29°49' W 092°08'0 0.0
2018-Jun-18 19:59N 29°49' W 092°08'0 0.0
2018-Jun-18 19:30N 29°49' W 092°08'0 0.4
2018-Jun-18 18:59N 29°49' W 092°08'0 0.1
2018-Jun-18 18:30N 29°49' W 092°08'0 0.3
2018-Jun-18 17:59N 29°49' W 092°08'0 0.0
2018-Jun-18 17:30N 29°49' W 092°08'0 0.0
2018-Jun-18 17:00N 29°49' W 092°08'0 0.0
2018-Jun-18 16:30N 29°49' W 092°08'0 0.0
2018-Jun-18 16:00N 29°49' W 092°08'0 0.0
2018-Jun-18 15:30N 29°49' W 092°08'0 0.0
2018-Jun-18 15:00N 29°49' W 092°08'0 0.0
2018-Jun-18 14:30N 29°49' W 092°08'0 0.0
2018-Jun-18 13:59N 29°49' W 092°08'0 0.0
2018-Jun-18 13:30N 29°49' W 092°08'0 0.3
2018-Jun-18 13:00N 29°49' W 092°08'0 0.0
2018-Jun-18 12:30N 29°49' W 092°08'0 0.0
2018-Jun-18 11:57N 29°49' W 092°08'0 0.0
2018-Jun-18 11:26N 29°49' W 092°08'0 0.0
2018-Jun-18 10:58N 29°49' W 092°08'0 0.0
2018-Jun-18 10:30N 29°49' W 092°08'0 0.0
2018-Jun-18 10:00N 29°49' W 092°08'0 0.0
2018-Jun-18 09:29N 29°49' W 092°08'0 0.0
2018-Jun-18 09:00N 29°49' W 092°08'0 0.0
2018-Jun-18 08:30N 29°49' W 092°08'0 0.0
2018-Jun-18 08:00N 29°49' W 092°08'0 0.0
2018-Jun-18 07:30N 29°49' W 092°08'0 0.0
2018-Jun-18 07:00N 29°49' W 092°08'0 0.0
2018-Jun-18 06:30N 29°49' W 092°08'0 0.0
2018-Jun-18 06:00N 29°49' W 092°08'1 2.1
2018-Jun-18 05:30N 29°48' W 092°08'1 2.2
2018-Jun-18 05:00N 29°47' W 092°08'3 5.3
2018-Jun-18 04:30N 29°48' W 092°05'2 3.3
2018-Jun-18 04:00N 29°49' W 092°03'0 0.0
2018-Jun-18 03:30N 29°49' W 092°03'0 0.5
2018-Jun-18 03:00N 29°49' W 092°04'61 4.5
2018-Jun-17 13:33N 29°34' W 090°56'1 7.5
2018-Jun-17 13:28N 29°34' W 090°55'4 7.0
2018-Jun-17 12:56N 29°32' W 090°51'3 7.2
2018-Jun-17 12:30N 29°32' W 090°48'3 5.8
2018-Jun-17 12:00N 29°34' W 090°45'2 3.6
2018-Jun-17 11:30N 29°34' W 090°43'2 3.2
2018-Jun-17 11:00N 29°33' W 090°41'0 0.3
2018-Jun-17 10:30N 29°33' W 090°41'0 0.0
2018-Jun-17 10:00N 29°33' W 090°41'0 0.0
2018-Jun-17 09:30N 29°33' W 090°41'0 0.0
2018-Jun-17 09:00N 29°33' W 090°41'0 0.0
2018-Jun-17 08:30N 29°33' W 090°41'0 0.0
2018-Jun-17 08:00N 29°33' W 090°41'0 0.0
2018-Jun-17 07:30N 29°33' W 090°41'0 0.0
2018-Jun-17 06:59N 29°33' W 090°41'0 0.0
2018-Jun-17 06:30N 29°33' W 090°41'0 0.0
2018-Jun-17 06:00N 29°33' W 090°41'0 0.0
2018-Jun-17 05:30N 29°33' W 090°41'0 0.0
2018-Jun-17 05:00N 29°33' W 090°41'0 0.0
2018-Jun-17 04:29N 29°33' W 090°41'0 0.0
2018-Jun-17 04:00N 29°33' W 090°41'0 0.0
2018-Jun-17 03:30N 29°33' W 090°41'0 0.0
2018-Jun-17 03:00N 29°33' W 090°41'0 0.0
2018-Jun-17 02:30N 29°33' W 090°41'0 0.0
2018-Jun-17 02:00N 29°33' W 090°41'0 0.1
2018-Jun-17 01:30N 29°33' W 090°41'0 0.3
2018-Jun-17 01:00N 29°33' W 090°42'0 0.1
2018-Jun-17 00:30N 29°33' W 090°42'0 0.0
2018-Jun-16 23:59N 29°33' W 090°42'0 0.6
2018-Jun-16 23:31N 29°33' W 090°41'0 0.0
2018-Jun-16 23:00N 29°33' W 090°41'0 0.0
2018-Jun-16 22:31N 29°33' W 090°41'0 0.0
2018-Jun-16 22:00N 29°33' W 090°41'0 0.0
2018-Jun-16 21:30N 29°33' W 090°41'0 0.0
2018-Jun-16 20:59N 29°33' W 090°41'0 0.0
2018-Jun-16 20:29N 29°33' W 090°41'0 0.0
2018-Jun-16 20:01N 29°33' W 090°41'0 0.0
2018-Jun-16 19:31N 29°33' W 090°41'0 0.0
2018-Jun-16 19:01N 29°33' W 090°41'0 0.0
2018-Jun-16 18:31N 29°33' W 090°41'0 0.0
2018-Jun-16 18:01N 29°33' W 090°41'0 0.0
2018-Jun-16 17:30N 29°33' W 090°41'0 0.0
2018-Jun-16 17:01N 29°33' W 090°41'0 0.0
2018-Jun-16 16:31N 29°33' W 090°41'0 0.0
2018-Jun-16 16:00N 29°33' W 090°41'0 0.0
2018-Jun-16 15:30N 29°33' W 090°41'0 0.0
2018-Jun-16 15:00N 29°33' W 090°41'0 0.0
2018-Jun-16 14:31N 29°33' W 090°41'0 0.0
2018-Jun-16 14:01N 29°33' W 090°41'0 0.0
2018-Jun-16 13:31N 29°33' W 090°41'0 0.0
2018-Jun-16 13:01N 29°33' W 090°41'0 0.0
2018-Jun-16 12:30N 29°33' W 090°41'0 0.0
2018-Jun-16 12:00N 29°33' W 090°41'0 0.0
2018-Jun-16 11:31N 29°33' W 090°41'0 0.0
2018-Jun-16 11:01N 29°33' W 090°41'0 0.0
2018-Jun-16 10:31N 29°33' W 090°41'0 0.0
2018-Jun-16 10:01N 29°33' W 090°41'0 0.3
2018-Jun-16 09:31N 29°33' W 090°41'3 5.4
2018-Jun-16 09:00N 29°30' W 090°43'4 7.1
2018-Jun-16 08:30N 29°27' W 090°43'2 0.3
2018-Jun-15 23:42N 29°24' W 090°44'2 7.7
2018-Jun-15 23:30N 29°26' W 090°43'4 8.7
2018-Jun-15 23:00N 29°30' W 090°43'3 5.6
2018-Jun-15 22:30N 29°33' W 090°41'0 0.0
2018-Jun-15 22:00N 29°33' W 090°41'0 0.0
2018-Jun-15 21:30N 29°33' W 090°41'0 0.0
2018-Jun-15 21:00N 29°33' W 090°41'0 0.0
2018-Jun-15 20:30N 29°33' W 090°41'0 0.0
2018-Jun-15 19:56N 29°33' W 090°41'0 0.0
2018-Jun-15 19:31N 29°33' W 090°41'0 0.0
2018-Jun-15 19:01N 29°33' W 090°41'0 0.0
2018-Jun-15 18:31N 29°33' W 090°41'0 0.0
2018-Jun-15 18:00N 29°33' W 090°41'0 0.0
2018-Jun-15 17:30N 29°33' W 090°41'0 0.0
2018-Jun-15 17:00N 29°33' W 090°41'0 0.0
2018-Jun-15 16:30N 29°33' W 090°41'0 0.0
2018-Jun-15 16:01N 29°33' W 090°41'0 0.0
2018-Jun-15 15:31N 29°33' W 090°41'0 0.0
2018-Jun-15 15:00N 29°33' W 090°41'0 0.0
2018-Jun-15 14:30N 29°33' W 090°41'0 0.0
2018-Jun-15 14:00N 29°33' W 090°41'1 2.4
2018-Jun-15 13:31N 29°34' W 090°42'0 0.1
2018-Jun-15 13:00N 29°34' W 090°42'0 0.1
2018-Jun-15 12:30N 29°34' W 090°42'1 2.4
2018-Jun-15 12:01N 29°33' W 090°41'0 0.0
2018-Jun-15 11:30N 29°33' W 090°41'0 0.0
2018-Jun-15 11:00N 29°33' W 090°41'0 0.0
2018-Jun-15 10:31N 29°33' W 090°41'0 0.0
2018-Jun-15 10:00N 29°33' W 090°41'0 0.0
2018-Jun-15 09:31N 29°33' W 090°41'0 0.0
2018-Jun-15 09:00N 29°33' W 090°41'0 0.0
2018-Jun-15 08:31N 29°33' W 090°41'0 0.0
2018-Jun-15 08:00N 29°33' W 090°41'1 1.7
2018-Jun-15 07:30N 29°33' W 090°42'2 4.7
2018-Jun-15 07:00N 29°34' W 090°45'4 7.7
2018-Jun-15 06:28N 29°32' W 090°49'6 0.8
2018-Jun-14 22:35N 29°34' W 090°56'1 8.6
2018-Jun-14 22:26N 29°33' W 090°55'4 0.6
2018-Jun-14 16:12N 29°32' W 090°50'1 3.1
2018-Jun-14 16:00N 29°32' W 090°50'2 3.1
2018-Jun-14 15:30N 29°32' W 090°48'1 3.0
2018-Jun-14 15:00N 29°32' W 090°46'1 2.4
2018-Jun-14 14:30N 29°33' W 090°45'1 2.2
2018-Jun-14 14:00N 29°34' W 090°44'1 2.2
2018-Jun-14 13:30N 29°34' W 090°43'1 1.6
2018-Jun-14 13:01N 29°35' W 090°43'1 1.6
2018-Jun-14 12:31N 29°36' W 090°43'1 1.3
2018-Jun-14 12:00N 29°36' W 090°43'0 0.1
2018-Jun-14 11:30N 29°36' W 090°43'0 0.1
2018-Jun-14 11:01N 29°36' W 090°43'1 3.0
2018-Jun-14 10:30N 29°35' W 090°43'3 5.0
2018-Jun-14 10:00N 29°33' W 090°42'0 0.3
2018-Jun-14 09:31N 29°33' W 090°41'0 0.0
2018-Jun-14 09:01N 29°33' W 090°41'0 0.0
2018-Jun-14 08:30N 29°33' W 090°41'0 0.0
2018-Jun-14 08:01N 29°33' W 090°41'0 0.0
2018-Jun-14 07:29N 29°33' W 090°41'0 0.0
2018-Jun-14 07:01N 29°33' W 090°41'0 0.0
2018-Jun-14 06:30N 29°33' W 090°41'0 0.0
2018-Jun-14 06:00N 29°33' W 090°41'0 0.0
2018-Jun-14 05:30N 29°33' W 090°41'0 0.0
2018-Jun-14 05:01N 29°33' W 090°41'0 0.0
2018-Jun-14 04:30N 29°33' W 090°41'0 0.0
2018-Jun-14 04:00N 29°33' W 090°41'0 0.0
2018-Jun-14 03:31N 29°33' W 090°41'0 0.0
2018-Jun-14 03:01N 29°33' W 090°41'0 0.0
2018-Jun-14 02:31N 29°33' W 090°41'0 0.0
2018-Jun-14 02:01N 29°33' W 090°41'0 0.0
2018-Jun-14 01:31N 29°33' W 090°41'0 0.0
2018-Jun-14 01:01N 29°33' W 090°41'0 0.0
2018-Jun-14 00:31N 29°33' W 090°41'0 0.1
2018-Jun-14 00:01N 29°33' W 090°41'0 0.5
2018-Jun-13 23:30N 29°33' W 090°42'2 3.7
2018-Jun-13 23:00N 29°34' W 090°43'2 3.5
2018-Jun-13 22:31N 29°36' W 090°43'2 3.0
2018-Jun-13 22:00N 29°36' W 090°41'3 5.1
2018-Jun-13 21:30N 29°35' W 090°38'2 5.0
2018-Jun-13 21:00N 29°35' W 090°35'3 5.8
2018-Jun-13 20:30N 29°34' W 090°32'3 0.2
2018-Jun-13 06:08N 29°33' W 090°28'1 6.5
2018-Jun-13 06:00N 29°34' W 090°29'3 6.4
2018-Jun-13 05:30N 29°34' W 090°33'3 5.5
2018-Jun-13 05:00N 29°35' W 090°36'0 0.2
2018-Jun-13 04:30N 29°35' W 090°36'3 5.8
2018-Jun-13 04:00N 29°36' W 090°39'3 6.3
2018-Jun-13 03:30N 29°37' W 090°42'3 6.2
2018-Jun-13 03:01N 29°33' W 090°43'1 1.9
2018-Jun-13 02:30N 29°33' W 090°43'0 0.2
2018-Jun-13 02:01N 29°33' W 090°42'0 0.2
2018-Jun-13 01:30N 29°33' W 090°43'1 1.5
2018-Jun-13 01:01N 29°33' W 090°42'1 1.1
2018-Jun-13 00:31N 29°33' W 090°42'2 3.2
2018-Jun-13 00:01N 29°31' W 090°42'2 4.6
2018-Jun-12 23:30N 29°29' W 090°43'6 1.6
2018-Jun-12 19:52N 29°23' W 090°44'3 7.5
2018-Jun-12 19:30N 29°26' W 090°43'4 7.5
2018-Jun-12 19:00N 29°29' W 090°43'3 6.6
2018-Jun-12 18:31N 29°33' W 090°42'0 0.0
2018-Jun-12 18:00N 29°33' W 090°42'0 0.3
2018-Jun-12 17:30N 29°33' W 090°42'3 5.2
2018-Jun-12 17:00N 29°30' W 090°43'7 1.6
2018-Jun-12 12:22N 29°23' W 090°44'2 6.7
2018-Jun-12 12:00N 29°25' W 090°43'4 8.0
2018-Jun-12 11:30N 29°29' W 090°43'4 7.7
2018-Jun-12 11:00N 29°33' W 090°42'1 1.2
2018-Jun-12 10:30N 29°33' W 090°41'0 0.0
2018-Jun-12 10:00N 29°33' W 090°41'0 0.0
2018-Jun-12 09:30N 29°33' W 090°41'0 0.0
2018-Jun-12 09:00N 29°33' W 090°41'0 0.0
2018-Jun-12 08:30N 29°33' W 090°41'0 0.0
2018-Jun-12 08:00N 29°33' W 090°41'0 0.0
2018-Jun-12 07:30N 29°33' W 090°41'0 0.0
2018-Jun-12 07:00N 29°33' W 090°41'0 0.0
2018-Jun-12 06:30N 29°33' W 090°41'0 0.0
2018-Jun-12 06:00N 29°33' W 090°41'0 0.0
2018-Jun-12 05:30N 29°33' W 090°41'0 0.0
2018-Jun-12 05:00N 29°33' W 090°41'0 0.0
2018-Jun-12 04:30N 29°33' W 090°41'0 0.0
2018-Jun-12 04:00N 29°33' W 090°41'0 0.0
2018-Jun-12 03:30N 29°33' W 090°41'0 0.0
2018-Jun-12 03:00N 29°33' W 090°41'0 0.0
2018-Jun-12 02:30N 29°33' W 090°41'0 0.0
2018-Jun-12 02:00N 29°33' W 090°41'0 0.0
2018-Jun-12 01:30N 29°33' W 090°41'0 0.0
2018-Jun-12 01:00N 29°33' W 090°41'0 0.0
2018-Jun-12 00:30N 29°33' W 090°41'0 0.0
2018-Jun-12 00:00N 29°33' W 090°41'0 0.0
2018-Jun-11 23:30N 29°33' W 090°41'0 0.0
2018-Jun-11 23:00N 29°33' W 090°41'0 0.0
2018-Jun-11 22:30N 29°33' W 090°41'0 0.0
2018-Jun-11 22:00N 29°33' W 090°41'0 0.0
2018-Jun-11 21:30N 29°33' W 090°41'2 4.0
2018-Jun-11 21:00N 29°34' W 090°43'3 6.0
2018-Jun-11 20:30N 29°32' W 090°46'  

Dump ship's entire track history